Time;durP1;ratioP1;P1;durP2;ratioP2;P2;SDS_P1;SDS_P2;PMS_P1;PMS_P2;Temp;Humidity;BMP_temperature;BMP_pressure;BME280_temperature;BME280_humidity;BME280_pressure;Samples;Min_cycle;Max_cycle;Signal;HPM_P1;HPM_P2
2024/01/01 00:05:31;;;;;;;11.43;7.22;;;;;;;15.18;71.21;96210.22;6155044;23;20076;-24
2024/01/01 00:21:23;;;;;;;11.27;7.22;;;;;;;15.21;70.59;96209.28;6155659;23;20092;-25
2024/01/01 00:34:21;;;;;;;14.85;7.88;;;;;;;15.27;69.76;96185.59;6156743;23;20020;-24
2024/01/01 00:50:14;;;;;;;13.18;7.10;;;;;;;15.37;69.81;96195.25;6154616;23;20467;-24
2024/01/01 01:06:05;;;;;;;10.95;6.65;;;;;;;15.37;69.35;96214.38;6155696;23;20450;-24
2024/01/01 01:21:57;;;;;;;13.63;8.18;;;;;;;15.42;69.60;96223.94;6154948;23;20064;-24
2024/01/01 01:35:06;;;;;;;15.27;7.32;;;;;;;15.50;68.74;96208.69;6156094;23;20466;-24
2024/01/01 01:50:59;;;;;;;9.50;5.78;;;;;;;15.27;69.39;96212.16;6154145;23;20024;-25
2024/01/01 02:06:51;;;;;;;10.43;5.82;;;;;;;15.26;69.52;96189.53;6154461;23;20389;-24
2024/01/01 02:22:44;;;;;;;11.05;6.03;;;;;;;15.13;69.42;96194.44;6155792;23;20112;-24
2024/01/01 02:25:10;;;;;;;9.63;5.70;;;;;;;15.30;68.90;96186.63;6154649;23;20009;-25
2024/01/01 02:37:40;;;;;;;9.90;5.07;;;;;;;15.13;68.08;96188.22;6155565;23;20020;-24
2024/01/01 02:50:56;;;;;;;11.52;5.78;;;;;;;15.34;67.42;96179.00;6155694;23;20016;-24
2024/01/01 03:07:38;;;;;;;7.50;4.72;;;;;;;15.35;67.04;96173.09;6124836;23;20017;-24
2024/01/01 03:36:57;;;;;;;8.80;3.80;;;;;;;15.32;66.48;96149.44;6125490;23;20044;-24
2024/01/01 03:52:49;;;;;;;5.30;3.78;;;;;;;15.38;65.94;96142.09;6148802;23;20035;-24
2024/01/01 04:22:08;;;;;;;9.07;4.07;;;;;;;15.22;66.95;96128.09;6156387;23;20050;-24
2024/01/01 04:38:01;;;;;;;11.48;4.20;;;;;;;15.27;66.50;96138.38;6156194;23;20450;-25
2024/01/01 04:53:53;;;;;;;7.60;3.33;;;;;;;15.22;66.77;96139.00;6154294;23;20144;-25
2024/01/01 05:23:26;;;;;;;8.75;3.80;;;;;;;15.39;67.05;96143.63;6155891;23;20098;-24
2024/01/01 05:39:19;;;;;;;8.30;3.75;;;;;;;15.36;67.42;96139.09;6154894;23;20384;-25
2024/01/01 06:09:28;;;;;;;10.80;4.63;;;;;;;15.28;68.63;96137.94;6155139;23;20039;-24
2024/01/01 06:25:20;;;;;;;14.90;4.45;;;;;;;15.42;68.59;96137.25;6154665;23;20072;-24
2024/01/01 06:38:36;;;;;;;10.10;4.68;;;;;;;15.32;69.02;96154.16;6155712;23;20060;-24
2024/01/01 06:54:29;;;;;;;12.15;3.97;;;;;;;15.34;68.99;96163.38;6153328;23;20072;-25
2024/01/01 06:56:54;;;;;;;12.55;4.38;;;;;;;15.37;68.88;96161.69;6154117;23;20372;-24
2024/01/01 07:09:26;;;;;;;14.55;4.95;;;;;;;15.43;68.92;96174.28;6155527;23;20015;-24
2024/01/01 07:25:18;;;;;;;13.82;5.55;;;;;;;15.42;68.76;96189.16;6154622;23;20021;-24
2024/01/01 07:41:11;;;;;;;15.27;6.30;;;;;;;15.33;69.05;96189.19;6153881;23;20016;-25
2024/01/01 07:54:26;;;;;;;13.38;5.75;;;;;;;15.28;69.28;96216.41;6155096;23;20462;-24
2024/01/01 08:11:08;;;;;;;24.23;8.10;;;;;;;15.42;68.67;96207.53;6124821;23;20028;-24
2024/01/01 08:40:26;;;;;;;15.73;4.57;;;;;;;15.42;68.89;96238.34;6126818;23;20040;-24
2024/01/01 08:56:19;;;;;;;14.98;4.47;;;;;;;15.40;69.20;96248.97;6148434;23;20144;-25
2024/01/01 09:12:12;;;;;;;15.25;5.75;;;;;;;15.46;69.04;96262.75;6155262;23;20020;-25
2024/01/01 09:25:23;;;;;;;17.05;4.65;;;;;;;15.43;69.23;96269.91;6156762;23;20479;-24
2024/01/01 09:41:15;;;;;;;14.63;5.32;;;;;;;15.56;69.02;96296.31;6155943;23;20016;-24
2024/01/01 09:57:07;;;;;;;15.40;5.18;;;;;;;15.46;69.06;96288.09;6153645;23;20106;-24
2024/01/01 10:13:07;;;;;;;15.88;8.07;;;;;;;15.43;68.92;96291.03;6154145;23;20064;-24
2024/01/01 10:26:07;;;;;;;19.98;9.50;;;;;;;15.34;68.82;96275.41;6155585;23;20091;-24
2024/01/01 10:42:02;;;;;;;20.67;9.20;;;;;;;15.44;68.69;96271.44;6155215;23;20024;-25
2024/01/01 10:58:11;;;;;;;18.42;8.52;;;;;;;15.37;68.79;96260.81;6153136;23;20076;-24
2024/01/01 11:11:44;;;;;;;17.95;9.57;;;;;;;15.46;68.33;96260.78;6155076;23;20513;-24
2024/01/01 11:28:41;;;;;;;18.85;8.43;;;;;;;15.41;69.04;96239.56;6154395;23;20044;-25
2024/01/01 11:42:01;;;;;;;18.13;8.18;;;;;;;15.65;68.03;96228.69;6154861;23;20020;-24
2024/01/01 11:57:53;;;;;;;17.67;10.00;;;;;;;15.40;68.75;96221.66;6153577;23;20028;-24
2024/01/01 12:13:56;;;;;;;17.08;8.60;;;;;;;15.41;68.24;96206.00;6155805;23;20068;-25
2024/01/01 12:43:15;;;;;;;12.27;7.60;;;;;;;15.70;67.49;96194.50;6155958;23;20021;-24
2024/01/01 12:59:07;;;;;;;35.40;19.33;;;;;;;15.39;68.54;96195.53;6154547;23;20463;-24
2024/01/01 13:14:59;;;;;;;18.83;10.02;;;;;;;15.49;68.17;96179.84;6154904;23;20068;-24
2024/01/01 13:28:13;;;;;;;13.98;6.55;;;;;;;15.35;68.83;96186.75;6156543;23;20020;-24
2024/01/01 13:44:05;;;;;;;17.98;6.03;;;;;;;15.63;67.59;96187.38;6155597;23;20447;-24
2024/01/01 13:59:58;;;;;;;15.57;6.35;;;;;;;15.46;68.16;96184.25;6153869;23;20032;-24
2024/01/01 14:15:51;;;;;;;14.88;4.97;;;;;;;15.36;68.05;96187.50;6154551;23;20449;-25
2024/01/01 14:28:56;;;;;;;10.63;4.40;;;;;;;15.44;68.03;96184.00;6155502;23;20024;-24
2024/01/01 14:44:48;;;;;;;10.82;5.57;;;;;;;15.37;68.36;96203.44;6155209;23;20064;-24
2024/01/01 15:00:40;;;;;;;13.32;6.05;;;;;;;15.51;67.39;96195.78;6151802;23;20075;-24
2024/01/01 15:30:24;;;;;;;17.42;6.53;;;;;;;15.55;66.88;96210.84;6154640;23;20035;-24
2024/01/01 15:46:17;;;;;;;11.25;5.07;;;;;;;15.61;66.75;96233.56;6155985;23;20020;-24
2024/01/01 16:17:03;;;;;;;16.42;5.05;;;;;;;15.48;66.68;96232.22;6155509;23;20019;-24
2024/01/01 16:30:20;;;;;;;14.55;4.28;;;;;;;15.45;66.37;96233.94;6157220;23;20371;-24
2024/01/01 16:46:12;;;;;;;15.45;7.03;;;;;;;15.42;66.19;96243.81;6156347;23;20340;-24
2024/01/01 17:02:05;;;;;;;15.77;7.35;;;;;;;15.60;64.98;96270.31;6154381;23;20068;-25
2024/01/01 17:17:57;;;;;;;18.60;6.88;;;;;;;15.45;65.13;96278.41;6155216;23;20036;-27
2024/01/01 17:31:02;;;;;;;23.77;8.15;;;;;;;15.55;64.82;96292.84;6156425;23;20017;-27
2024/01/01 17:46:54;;;;;;;19.13;5.85;;;;;;;15.60;64.62;96305.84;6155802;23;20068;-27
2024/01/01 18:02:47;;;;;;;23.60;10.65;;;;;;;15.27;65.59;96315.97;6153905;23;20023;-27
2024/01/01 18:18:42;;;;;;;18.10;5.50;;;;;;;15.36;64.50;96305.00;6154521;23;20052;-27
2024/01/01 18:31:47;;;;;;;19.75;6.13;;;;;;;15.22;63.64;96305.66;6155630;23;20028;-27
2024/01/01 18:47:40;;;;;;;29.13;13.05;;;;;;;15.21;62.80;96304.88;6154858;23;20510;-28
2024/01/01 19:03:32;;;;;;;44.38;25.25;;;;;;;15.30;62.60;96329.47;6152867;23;20028;-27
2024/01/01 19:33:31;;;;;;;16.60;7.57;;;;;;;15.07;61.60;96343.78;6154462;23;20064;-27
2024/01/01 19:49:24;;;;;;;19.75;10.43;;;;;;;15.15;61.56;96346.97;6153977;23;20040;-27
2024/01/01 20:02:50;;;;;;;28.50;13.38;;;;;;;15.22;61.00;96355.59;6155333;23;20056;-27
2024/01/01 20:19:34;;;;;;;22.30;10.60;;;;;;;15.02;61.40;96377.16;6124523;23;20096;-27
2024/01/01 20:48:53;;;;;;;11.82;3.53;;;;;;;15.01;61.24;96392.03;6126986;23;20060;-26
2024/01/01 21:04:45;;;;;;;13.95;4.47;;;;;;;15.01;61.22;96403.72;6148385;23;20076;-27
2024/01/01 21:20:37;;;;;;;17.50;7.30;;;;;;;15.00;60.93;96396.72;6155186;23;20348;-25
2024/01/01 21:33:49;;;;;;;10.65;2.63;;;;;;;15.05;60.11;96425.41;6155863;23;20021;-26
2024/01/01 21:50:01;;;;;;;16.40;3.25;;;;;;;15.01;59.44;96447.41;6155495;23;20023;-27
2024/01/01 22:05:53;;;;;;;5.43;2.17;;;;;;;15.12;57.86;96436.03;6153486;23;20033;-27
2024/01/01 22:35:12;;;;;;;8.85;1.70;;;;;;;14.95;54.96;96440.28;6154867;23;20048;-26
2024/01/01 22:51:10;;;;;;;8.20;1.40;;;;;;;14.88;54.54;96429.66;6155636;23;20028;-27
2024/01/01 23:07:03;;;;;;;7.43;1.45;;;;;;;14.80;53.58;96395.69;6152053;23;20096;-27
2024/01/01 23:22:58;;;;;;;6.97;1.90;;;;;;;14.73;53.93;96402.19;6154194;23;20067;-26
2024/01/01 23:38:51;;;;;;;6.70;1.50;;;;;;;14.58;53.83;96399.31;6154302;23;20351;-27
2024/01/01 23:51:53;;;;;;;10.95;1.38;;;;;;;14.58;53.76;96385.66;6155012;23;20016;-26
